Terminal Aerodrome Forecast
Issued by NWS Sioux Falls, SD

Home | Current Version | Previous Version | Text Only | Print | Product List | Glossary On
Versions: 1 2 3 4 5 6 7 8 9 10 11 12 13 14 15 16 17 18
000
FTUS43 KFSD 160537
TAFFSD
TAF
KFSD 160537Z 1606/1706 33012G19KT P6SM SKC
     FM160900 31006KT P6SM SKC
     FM161500 25006KT P6SM SKC
     FM161700 22008KT P6SM SKC
     FM162000 19012KT P6SM SKC=

USA.gov is the U.S. government's official web portal to all federal, state and local government web resources and services.